createdAt,value
2023-02-06T00:00:53.277Z,51.13
2023-02-06T00:03:39.641Z,50.13
2023-02-06T00:06:06.204Z,49.93
2023-02-06T00:08:33.805Z,44.67
2023-02-06T00:11:06.614Z,45.93
2023-02-06T00:13:34.700Z,43.73
2023-02-06T00:16:01.869Z,42.50
2023-02-06T00:18:28.604Z,47.17
2023-02-06T00:20:54.846Z,46.70
2023-02-06T00:23:21.424Z,47.43
2023-02-06T00:25:47.601Z,42.77
2023-02-06T00:28:14.288Z,43.10
2023-02-06T00:30:40.522Z,43.57
2023-02-06T00:33:07.061Z,45.77
2023-02-06T00:35:34.121Z,45.50
2023-02-06T00:38:01.720Z,47.20
2023-02-06T00:40:28.580Z,47.10
2023-02-06T00:42:55.060Z,46.30
2023-02-06T00:45:21.304Z,46.43
2023-02-06T00:47:47.775Z,49.23
2023-02-06T00:50:14.966Z,47.90
2023-02-06T00:52:43.014Z,47.50
2023-02-06T00:55:10.266Z,46.73
2023-02-06T00:57:36.739Z,48.53
2023-02-06T01:00:07.989Z,45.93
2023-02-06T01:02:35.268Z,46.53
2023-02-06T01:05:01.866Z,45.60
2023-02-06T01:07:28.571Z,46.93
2023-02-06T01:09:54.720Z,45.27
2023-02-06T01:12:21.154Z,45.20
2023-02-06T01:14:47.307Z,46.87
2023-02-06T01:17:13.785Z,49.67
2023-02-06T01:19:40.161Z,47.60
2023-02-06T01:22:06.849Z,48.13
2023-02-06T01:24:33.044Z,49.97
2023-02-06T01:26:59.678Z,45.00
2023-02-06T01:29:25.945Z,44.60
2023-02-06T01:31:52.341Z,44.33
2023-02-06T01:34:18.739Z,43.53
2023-02-06T01:36:45.312Z,44.67
2023-02-06T01:39:11.457Z,50.33
2023-02-06T01:41:38.200Z,50.37
2023-02-06T01:44:14.122Z,47.93
2023-02-06T01:46:42.824Z,50.13
2023-02-06T01:49:14.764Z,48.63
2023-02-06T01:51:41.787Z,54.77
2023-02-06T01:54:08.778Z,55.20
2023-02-06T01:56:49.170Z,57.63
2023-02-06T01:59:15.487Z,57.17
2023-02-06T02:01:42.612Z,53.17
2023-02-06T02:04:16.699Z,54.47
2023-02-06T02:06:49.641Z,50.67
2023-02-06T02:09:17.740Z,49.53
2023-02-06T02:11:44.188Z,50.60
2023-02-06T02:14:14.334Z,51.77
2023-02-06T02:16:56.814Z,49.97
2023-02-06T02:20:02.658Z,49.10
2023-02-06T02:22:54.421Z,45.53
2023-02-06T02:26:02.235Z,47.23
2023-02-06T02:29:22.942Z,45.87
2023-02-06T02:31:57.474Z,45.60
2023-02-06T02:34:45.737Z,44.07
2023-02-06T02:37:38.575Z,44.77
2023-02-06T02:40:24.399Z,42.90
2023-02-06T02:43:09.715Z,44.77
2023-02-06T02:45:59.060Z,46.17
2023-02-06T02:48:33.414Z,46.50
2023-02-06T02:51:01.432Z,44.00
2023-02-06T02:53:27.754Z,44.07
2023-02-06T02:55:54.433Z,46.30
2023-02-06T02:58:28.207Z,42.70
2023-02-06T03:01:00.660Z,42.00
2023-02-06T03:03:28.995Z,41.07
2023-02-06T03:06:07.125Z,38.53
2023-02-06T03:08:39.469Z,43.10
2023-02-06T03:11:19.404Z,66.97
2023-02-06T03:13:52.991Z,49.37
2023-02-06T03:16:40.846Z,40.57
2023-02-06T03:19:14.398Z,39.37
2023-02-06T03:21:42.147Z,38.23
2023-02-06T03:24:16.504Z,39.80
2023-02-06T03:26:44.427Z,37.57
2023-02-06T03:29:15.235Z,38.57
2023-02-06T03:31:48.895Z,37.17
2023-02-06T03:34:51.235Z,39.40
2023-02-06T03:37:20.491Z,37.43
2023-02-06T03:39:46.682Z,36.80
2023-02-06T03:42:15.255Z,40.00
2023-02-06T03:44:46.067Z,40.13
2023-02-06T03:47:15.281Z,38.60
2023-02-06T03:49:43.162Z,39.77
2023-02-06T03:52:14.092Z,38.13
2023-02-06T03:54:49.527Z,37.17
2023-02-06T03:57:18.678Z,35.27
2023-02-06T03:59:45.933Z,36.63
2023-02-06T04:02:14.217Z,38.00
2023-02-06T04:04:41.725Z,41.60
2023-02-06T04:07:16.283Z,35.97
2023-02-06T04:09:42.821Z,37.40
2023-02-06T04:12:09.361Z,38.83
2023-02-06T04:14:36.160Z,38.87
2023-02-06T04:17:06.535Z,38.53
2023-02-06T04:19:33.876Z,37.77
2023-02-06T04:22:00.537Z,37.67
2023-02-06T04:24:27.692Z,36.40
2023-02-06T04:26:54.835Z,38.17
2023-02-06T04:29:20.943Z,37.13
2023-02-06T04:31:47.316Z,35.83
2023-02-06T04:34:13.768Z,35.97
2023-02-06T04:36:40.211Z,36.60
2023-02-06T04:39:06.680Z,36.63
2023-02-06T04:41:33.269Z,35.50
2023-02-06T04:43:59.827Z,38.43
2023-02-06T04:46:26.568Z,36.50
2023-02-06T04:48:52.738Z,37.77
2023-02-06T04:51:19.351Z,59.13
2023-02-06T04:53:45.457Z,50.53
2023-02-06T04:56:12.610Z,53.13
2023-02-06T04:58:39.834Z,51.17
2023-02-06T05:01:06.427Z,50.63
2023-02-06T05:03:33.668Z,39.97
2023-02-06T05:06:01.335Z,39.97
2023-02-06T05:08:28.080Z,39.87
2023-02-06T05:10:55.832Z,39.23
2023-02-06T05:13:23.080Z,36.10
2023-02-06T05:15:49.826Z,38.03
2023-02-06T05:18:16.081Z,37.57
2023-02-06T05:20:43.219Z,35.90
2023-02-06T05:23:09.729Z,36.30
2023-02-06T05:25:36.974Z,35.33
2023-02-06T05:28:05.966Z,35.03
2023-02-06T05:30:33.803Z,34.50
2023-02-06T05:33:00.096Z,32.80
2023-02-06T05:35:26.545Z,33.27
2023-02-06T05:37:52.710Z,32.00
2023-02-06T05:40:19.163Z,32.67
2023-02-06T05:42:45.267Z,31.93
2023-02-06T05:45:11.767Z,31.73
2023-02-06T05:47:37.941Z,34.93
2023-02-06T05:50:04.765Z,34.97
2023-02-06T05:52:31.006Z,37.97
2023-02-06T05:54:57.541Z,34.70
2023-02-06T05:57:23.686Z,29.83
2023-02-06T05:59:50.225Z,30.37
2023-02-06T06:02:16.801Z,28.37
2023-02-06T06:04:43.400Z,28.30
2023-02-06T06:07:10.025Z,28.23
2023-02-06T06:09:36.580Z,31.63
2023-02-06T06:12:03.204Z,32.70
2023-02-06T06:14:29.713Z,34.03
2023-02-06T06:16:55.850Z,35.83
2023-02-06T06:19:22.472Z,32.73
2023-02-06T06:21:48.691Z,28.10
2023-02-06T06:24:15.182Z,27.10
2023-02-06T06:26:41.677Z,27.20
2023-02-06T06:29:08.169Z,27.13
2023-02-06T06:31:34.311Z,27.63
2023-02-06T06:34:01.081Z,25.03
2023-02-06T06:36:27.404Z,24.50
2023-02-06T06:38:53.898Z,22.87
2023-02-06T06:41:20.083Z,23.60
2023-02-06T06:43:46.582Z,25.70
2023-02-06T06:46:12.721Z,24.97
2023-02-06T06:48:39.680Z,22.93
2023-02-06T06:51:06.481Z,24.33
2023-02-06T06:53:33.004Z,24.53
2023-02-06T06:56:03.942Z,24.03
2023-02-06T06:58:30.503Z,23.23
2023-02-06T07:00:56.704Z,26.27
2023-02-06T07:03:23.317Z,25.97
2023-02-06T07:05:50.759Z,25.70
2023-02-06T07:08:18.671Z,29.27
2023-02-06T07:10:46.248Z,27.97
2023-02-06T07:13:14.724Z,24.43
2023-02-06T07:15:42.858Z,24.80
2023-02-06T07:18:11.428Z,28.47
2023-02-06T07:20:38.060Z,46.73
2023-02-06T07:23:05.236Z,34.73
2023-02-06T07:25:32.271Z,28.60
2023-02-06T07:27:58.951Z,25.70
2023-02-06T07:30:25.200Z,27.07
2023-02-06T07:32:51.651Z,26.43
2023-02-06T07:35:18.037Z,27.57
2023-02-06T07:37:44.662Z,29.90
2023-02-06T07:40:11.539Z,27.07
2023-02-06T07:42:39.722Z,26.67
2023-02-06T07:45:18.087Z,26.47
2023-02-06T07:47:45.032Z,27.70
2023-02-06T07:50:11.665Z,29.03
2023-02-06T07:52:38.259Z,28.90
2023-02-06T07:55:04.763Z,28.00
2023-02-06T07:57:31.509Z,28.67
2023-02-06T07:59:57.649Z,26.57
2023-02-06T08:02:24.270Z,26.47
2023-02-06T08:04:50.487Z,29.40
2023-02-06T08:07:17.820Z,28.50
2023-02-06T08:09:44.335Z,24.67
2023-02-06T08:12:12.046Z,24.50
2023-02-06T08:14:38.471Z,22.97
2023-02-06T08:17:05.033Z,21.93
2023-02-06T08:19:31.447Z,25.70
2023-02-06T08:21:58.152Z,22.70
2023-02-06T08:24:25.347Z,23.30
2023-02-06T08:26:52.224Z,27.53
2023-02-06T08:29:18.756Z,26.70
2023-02-06T08:31:45.334Z,27.70
2023-02-06T08:34:14.269Z,26.97
2023-02-06T08:36:43.358Z,30.00
2023-02-06T08:39:14.451Z,25.10
2023-02-06T08:41:43.243Z,25.33
2023-02-06T08:44:15.413Z,25.90
2023-02-06T08:46:44.031Z,24.53
2023-02-06T08:49:13.449Z,38.20
2023-02-06T08:51:40.427Z,27.13
2023-02-06T08:54:10.586Z,32.87
2023-02-06T08:56:37.566Z,23.57
2023-02-06T08:59:05.928Z,22.83
2023-02-06T09:01:34.623Z,21.80
2023-02-06T09:04:03.411Z,23.03
2023-02-06T09:06:29.877Z,24.97
2023-02-06T09:08:56.782Z,25.63
2023-02-06T09:11:24.785Z,24.43
2023-02-06T09:13:57.261Z,23.97
2023-02-06T09:16:24.973Z,23.47
2023-02-06T09:18:54.109Z,22.97
2023-02-06T09:21:25.576Z,22.93
2023-02-06T09:23:54.943Z,21.83
2023-02-06T09:26:23.948Z,22.43
2023-02-06T09:28:55.906Z,22.90
2023-02-06T09:31:24.265Z,23.63
2023-02-06T09:33:50.711Z,29.23
2023-02-06T09:36:19.770Z,29.33
2023-02-06T09:38:49.586Z,67.97
2023-02-06T09:41:31.023Z,27.60
2023-02-06T09:44:13.288Z,26.10
2023-02-06T09:47:04.478Z,22.57
2023-02-06T09:49:48.411Z,19.87
2023-02-06T09:52:21.060Z,21.00
2023-02-06T09:55:00.197Z,20.93
2023-02-06T09:57:45.568Z,20.87
2023-02-06T10:00:23.806Z,18.63
2023-02-06T10:02:50.821Z,18.60
2023-02-06T10:05:37.120Z,17.03
2023-02-06T10:08:24.877Z,17.23
2023-02-06T10:10:55.481Z,14.30
2023-02-06T10:13:34.486Z,15.13
2023-02-06T10:16:07.417Z,16.00
2023-02-06T10:18:39.861Z,19.77
2023-02-06T10:21:19.047Z,17.63
2023-02-06T10:24:18.950Z,17.37
2023-02-06T10:26:47.357Z,17.20
2023-02-06T10:29:35.662Z,14.30
2023-02-06T10:32:15.691Z,15.50
2023-02-06T10:35:05.280Z,11.30
2023-02-06T10:38:06.604Z,14.60
2023-02-06T10:40:39.608Z,16.67
2023-02-06T10:43:39.759Z,17.07
2023-02-06T10:46:22.431Z,15.27
2023-02-06T10:49:18.005Z,14.33
2023-02-06T10:51:48.514Z,9.67
2023-02-06T10:54:22.233Z,9.50
2023-02-06T10:56:52.014Z,10.13
2023-02-06T10:59:44.278Z,10.40
2023-02-06T11:03:08.035Z,9.13
2023-02-06T11:05:35.313Z,10.50
2023-02-06T11:08:23.410Z,9.90
2023-02-06T11:10:50.663Z,9.50
2023-02-06T11:13:34.671Z,8.83
2023-02-06T11:16:02.321Z,7.90
2023-02-06T11:18:35.374Z,10.57
2023-02-06T11:21:02.349Z,10.13
2023-02-06T11:23:30.834Z,13.70
2023-02-06T11:26:26.418Z,13.50
2023-02-06T11:29:01.699Z,8.27
2023-02-06T11:31:40.269Z,8.87
2023-02-06T11:34:35.349Z,6.33
2023-02-06T11:37:23.321Z,5.20
2023-02-06T11:39:49.949Z,5.10
2023-02-06T11:42:27.709Z,5.67
2023-02-06T11:44:54.173Z,5.10
2023-02-06T11:47:31.575Z,5.10
2023-02-06T11:50:34.517Z,4.80
2023-02-06T11:53:17.526Z,5.77
2023-02-06T11:55:45.987Z,5.70
2023-02-06T11:58:12.203Z,5.53
2023-02-06T12:00:54.011Z,5.53
2023-02-06T12:03:31.230Z,6.23
2023-02-06T12:06:03.518Z,6.87
2023-02-06T12:08:42.423Z,7.73
2023-02-06T12:11:19.358Z,8.10
2023-02-06T12:13:52.897Z,10.90
2023-02-06T12:16:21.040Z,10.37
2023-02-06T12:18:51.892Z,11.00
2023-02-06T12:22:03.994Z,11.27
2023-02-06T12:24:41.619Z,10.10
2023-02-06T12:27:20.273Z,9.63
2023-02-06T12:30:01.774Z,9.53
2023-02-06T12:32:38.057Z,8.33
2023-02-06T12:35:31.156Z,10.37
2023-02-06T12:38:04.382Z,11.10
2023-02-06T12:40:37.583Z,7.73
2023-02-06T12:43:10.962Z,7.43
2023-02-06T12:46:00.566Z,7.77
2023-02-06T12:48:46.009Z,7.63
2023-02-06T12:51:18.643Z,6.83
2023-02-06T12:53:52.091Z,7.27
2023-02-06T12:56:30.230Z,6.63
2023-02-06T12:59:06.193Z,7.70
2023-02-06T13:01:44.920Z,7.70
2023-02-06T13:04:22.885Z,6.70
2023-02-06T13:07:10.441Z,7.03
2023-02-06T13:09:46.126Z,6.80
2023-02-06T13:12:22.318Z,6.67
2023-02-06T13:14:53.615Z,8.03
2023-02-06T13:17:24.280Z,8.60
2023-02-06T13:20:00.953Z,8.23
2023-02-06T13:22:33.924Z,15.57
2023-02-06T13:25:24.507Z,9.67
2023-02-06T13:27:52.644Z,6.63
2023-02-06T13:30:28.141Z,8.37
2023-02-06T13:33:08.653Z,8.83
2023-02-06T13:35:54.115Z,8.40
2023-02-06T13:38:23.363Z,7.07
2023-02-06T13:41:14.699Z,7.90
2023-02-06T13:43:56.982Z,28.47
2023-02-06T13:47:00.953Z,8.93
2023-02-06T13:49:56.686Z,7.83
2023-02-06T13:52:34.799Z,8.93
2023-02-06T13:55:30.046Z,8.00
2023-02-06T13:58:26.231Z,7.47
2023-02-06T14:00:55.386Z,7.13
2023-02-06T14:03:25.670Z,8.43
2023-02-06T14:06:04.528Z,8.13
2023-02-06T14:08:37.556Z,7.70
2023-02-06T14:11:13.301Z,9.00
2023-02-06T14:13:39.927Z,18.43
2023-02-06T14:16:09.600Z,16.87
2023-02-06T14:19:09.386Z,16.17
2023-02-06T14:21:58.473Z,8.67
2023-02-06T14:24:32.870Z,8.00
2023-02-06T14:27:17.252Z,8.30
2023-02-06T14:30:02.191Z,7.37
2023-02-06T14:32:37.568Z,8.47
2023-02-06T14:35:32.195Z,8.70
2023-02-06T14:38:17.207Z,7.83
2023-02-06T14:40:49.403Z,8.27
2023-02-06T14:43:22.943Z,8.57
2023-02-06T14:46:05.955Z,11.13
2023-02-06T14:48:49.740Z,9.23
2023-02-06T14:51:38.217Z,8.10
2023-02-06T14:54:07.284Z,11.37
2023-02-06T14:56:38.302Z,10.07
2023-02-06T14:59:15.625Z,8.07
2023-02-06T15:01:45.748Z,7.77
2023-02-06T15:04:14.022Z,7.40
2023-02-06T15:06:44.230Z,6.73
2023-02-06T15:09:35.635Z,7.67
2023-02-06T15:12:17.042Z,7.67
2023-02-06T15:14:52.821Z,6.40
2023-02-06T15:17:21.328Z,6.30
2023-02-06T15:19:47.869Z,6.50
2023-02-06T15:22:20.461Z,6.50
2023-02-06T15:25:04.907Z,6.27
2023-02-06T15:27:34.495Z,8.60
2023-02-06T15:30:11.832Z,8.27
2023-02-06T15:32:39.499Z,7.60
2023-02-06T15:35:20.118Z,8.17
2023-02-06T15:37:46.875Z,13.77
2023-02-06T15:40:13.446Z,12.80
2023-02-06T15:42:40.937Z,14.03
2023-02-06T15:45:24.731Z,8.77
2023-02-06T15:47:53.885Z,8.30
2023-02-06T15:50:23.563Z,11.90
2023-02-06T15:52:50.707Z,17.77
2023-02-06T15:55:31.050Z,18.80
2023-02-06T15:57:59.944Z,15.33
2023-02-06T16:00:30.935Z,9.03
2023-02-06T16:03:04.518Z,7.90
2023-02-06T16:05:41.388Z,7.43
2023-02-06T16:08:24.979Z,7.80
2023-02-06T16:11:05.011Z,7.87
2023-02-06T16:13:32.561Z,7.83
2023-02-06T16:16:11.179Z,9.13
2023-02-06T16:18:41.039Z,7.73
2023-02-06T16:21:16.558Z,8.90
2023-02-06T16:24:11.680Z,7.93
2023-02-06T16:26:41.078Z,8.57
2023-02-06T16:29:07.614Z,8.57
2023-02-06T16:31:36.255Z,8.30
2023-02-06T16:34:30.915Z,8.90
2023-02-06T16:36:57.031Z,9.00
2023-02-06T16:39:23.770Z,9.70
2023-02-06T16:41:52.029Z,9.17
2023-02-06T16:44:19.168Z,9.80
2023-02-06T16:46:48.456Z,12.67
2023-02-06T16:49:18.794Z,14.60
2023-02-06T16:51:46.893Z,13.43
2023-02-06T16:54:28.690Z,15.80
2023-02-06T16:57:00.876Z,17.27
2023-02-06T16:59:27.542Z,16.50
2023-02-06T17:01:54.819Z,14.73
2023-02-06T17:04:21.688Z,17.83
2023-02-06T17:06:48.310Z,15.87
2023-02-06T17:09:17.365Z,20.07
2023-02-06T17:11:44.072Z,18.00
2023-02-06T17:14:11.629Z,13.23
2023-02-06T17:16:38.116Z,14.77
2023-02-06T17:19:05.320Z,14.63
2023-02-06T17:21:32.403Z,14.13
2023-02-06T17:23:59.569Z,14.30
2023-02-06T17:26:25.980Z,15.20
2023-02-06T17:28:52.793Z,20.17
2023-02-06T17:31:19.280Z,29.93
2023-02-06T17:33:46.118Z,31.57
2023-02-06T17:36:21.924Z,36.10
2023-02-06T17:38:48.962Z,33.33
2023-02-06T17:41:15.092Z,27.70
2023-02-06T17:43:41.674Z,31.57
2023-02-06T17:46:09.948Z,34.83
2023-02-06T17:48:41.969Z,34.10
2023-02-06T17:51:09.099Z,24.63
2023-02-06T17:53:36.015Z,19.17
2023-02-06T17:56:14.390Z,16.30
2023-02-06T17:58:42.915Z,13.10
2023-02-06T18:01:14.363Z,11.30
2023-02-06T18:03:41.819Z,13.43
2023-02-06T18:06:08.784Z,13.23
2023-02-06T18:08:35.749Z,12.07
2023-02-06T18:11:13.002Z,13.17
2023-02-06T18:13:41.835Z,23.03
2023-02-06T18:16:14.288Z,36.17
2023-02-06T18:18:41.484Z,41.10
2023-02-06T18:21:07.864Z,42.07
2023-02-06T18:23:34.789Z,43.33
2023-02-06T18:26:03.973Z,38.00
2023-02-06T18:28:31.457Z,41.43
2023-02-06T18:31:01.419Z,52.53
2023-02-06T18:33:30.067Z,60.47
2023-02-06T18:35:56.679Z,61.87
2023-02-06T18:38:24.023Z,61.87
2023-02-06T18:40:50.586Z,51.50
2023-02-06T18:43:17.553Z,54.23
2023-02-06T18:45:44.014Z,49.60
2023-02-06T18:48:12.518Z,52.80
2023-02-06T18:50:41.483Z,47.80
2023-02-06T18:53:08.951Z,49.60
2023-02-06T18:55:36.553Z,52.93
2023-02-06T18:58:05.405Z,51.70
2023-02-06T19:00:37.141Z,53.17
2023-02-06T19:03:04.522Z,39.90
2023-02-06T19:05:35.492Z,32.43
2023-02-06T19:08:02.467Z,31.53
2023-02-06T19:10:31.489Z,34.53
2023-02-06T19:12:58.553Z,36.80
2023-02-06T19:15:25.027Z,38.90
2023-02-06T19:17:51.955Z,37.20
2023-02-06T19:20:19.528Z,34.23
2023-02-06T19:22:46.651Z,33.77
2023-02-06T19:25:14.713Z,34.10
2023-02-06T19:27:41.787Z,34.53
2023-02-06T19:30:08.787Z,34.73
2023-02-06T19:32:35.587Z,35.57
2023-02-06T19:35:03.409Z,33.47
2023-02-06T19:37:30.798Z,32.20
2023-02-06T19:39:57.315Z,33.03
2023-02-06T19:42:24.359Z,32.87
2023-02-06T19:44:53.857Z,32.43
2023-02-06T19:47:21.331Z,38.23
2023-02-06T19:49:55.423Z,41.40
2023-02-06T19:52:22.506Z,40.97
2023-02-06T19:54:49.371Z,43.57
2023-02-06T19:57:18.653Z,42.20
2023-02-06T19:59:46.228Z,43.50
2023-02-06T20:02:15.055Z,64.90
2023-02-06T20:04:41.708Z,78.33
2023-02-06T20:07:08.596Z,58.93
2023-02-06T20:09:35.857Z,60.03
2023-02-06T20:12:03.031Z,53.53
2023-02-06T20:14:30.304Z,54.53
2023-02-06T20:16:57.232Z,51.60
2023-02-06T20:19:27.022Z,52.00
2023-02-06T20:21:58.633Z,53.70
2023-02-06T20:24:30.073Z,52.13
2023-02-06T20:27:00.264Z,52.30
2023-02-06T20:29:33.119Z,49.77
2023-02-06T20:32:00.739Z,47.37
2023-02-06T20:34:28.732Z,45.13
2023-02-06T20:36:56.813Z,45.60
2023-02-06T20:39:25.066Z,39.00
2023-02-06T20:41:52.821Z,36.30
2023-02-06T20:44:20.231Z,35.00
2023-02-06T20:46:47.480Z,33.27
2023-02-06T20:49:20.794Z,29.37
2023-02-06T20:51:48.852Z,32.33
2023-02-06T20:54:17.138Z,31.03
2023-02-06T20:56:45.714Z,31.53
2023-02-06T20:59:14.188Z,31.23
2023-02-06T21:01:41.499Z,28.60
2023-02-06T21:04:11.023Z,31.80
2023-02-06T21:06:38.534Z,31.93
2023-02-06T21:09:06.617Z,34.37
2023-02-06T21:11:38.340Z,30.03
2023-02-06T21:14:06.013Z,30.67
2023-02-06T21:16:34.655Z,29.63
2023-02-06T21:19:02.022Z,27.37
2023-02-06T21:21:28.899Z,29.30
2023-02-06T21:23:55.318Z,31.03
2023-02-06T21:26:23.061Z,29.53
2023-02-06T21:28:50.224Z,32.27
2023-02-06T21:31:37.478Z,33.30
2023-02-06T21:34:14.993Z,30.67
2023-02-06T21:36:42.385Z,33.30
2023-02-06T21:39:10.654Z,33.70
2023-02-06T21:41:37.522Z,35.47
2023-02-06T21:44:04.204Z,34.97
2023-02-06T21:46:30.997Z,35.60
2023-02-06T21:48:58.138Z,36.17
2023-02-06T21:51:25.451Z,38.93
2023-02-06T21:53:51.978Z,36.70
2023-02-06T21:56:26.636Z,43.50
2023-02-06T21:58:53.717Z,43.10
2023-02-06T22:01:24.266Z,42.03
2023-02-06T22:03:51.600Z,43.13
2023-02-06T22:06:19.471Z,41.37
2023-02-06T22:08:51.208Z,45.90
2023-02-06T22:11:29.402Z,44.90
2023-02-06T22:14:05.939Z,44.40
2023-02-06T22:16:33.860Z,43.10
2023-02-06T22:19:00.140Z,41.00
2023-02-06T22:21:29.020Z,40.13
2023-02-06T22:23:57.955Z,39.77
2023-02-06T22:26:26.091Z,41.57
2023-02-06T22:28:52.852Z,39.00
2023-02-06T22:31:25.639Z,37.20
2023-02-06T22:33:52.908Z,37.27
2023-02-06T22:36:22.191Z,36.97
2023-02-06T22:38:54.421Z,40.70
2023-02-06T22:41:21.048Z,41.47
2023-02-06T22:43:49.299Z,41.13
2023-02-06T22:46:27.955Z,43.17
2023-02-06T22:48:54.539Z,43.00
2023-02-06T22:51:21.799Z,48.37
2023-02-06T22:53:48.662Z,49.80
2023-02-06T22:56:27.229Z,52.73
2023-02-06T22:59:01.444Z,51.70
2023-02-06T23:01:42.573Z,52.77
2023-02-06T23:04:23.349Z,50.77
2023-02-06T23:06:50.783Z,47.40
2023-02-06T23:09:25.907Z,48.80
2023-02-06T23:11:53.864Z,44.23
2023-02-06T23:14:20.529Z,40.77
2023-02-06T23:16:47.710Z,38.70
2023-02-06T23:19:15.058Z,46.07
2023-02-06T23:21:42.482Z,44.73
2023-02-06T23:24:09.492Z,48.97
2023-02-06T23:26:37.141Z,49.67
2023-02-06T23:29:06.494Z,52.97
2023-02-06T23:31:34.252Z,49.90
2023-02-06T23:34:00.662Z,50.27
2023-02-06T23:36:27.958Z,50.93
2023-02-06T23:38:54.330Z,46.17
2023-02-06T23:41:25.448Z,48.40
2023-02-06T23:43:56.863Z,51.70
2023-02-06T23:46:24.373Z,48.90
2023-02-06T23:48:51.273Z,50.20
2023-02-06T23:51:18.760Z,47.57
2023-02-06T23:53:44.901Z,48.20
2023-02-06T23:56:13.171Z,44.10
2023-02-06T23:58:40.004Z,48.80
